Time;durP1;ratioP1;P1;durP2;ratioP2;P2;SDS_P1;SDS_P2;PMS_P1;PMS_P2;Temp;Humidity;BMP_temperature;BMP_pressure;BME280_temperature;BME280_humidity;BME280_pressure;Samples;Min_cycle;Max_cycle;Signal;HPM_P1;HPM_P2
2022/05/22 00:00:01;;;;;;;4.53;3.50;;;18.60;67.40;;;;;;5044989;28;20350;-80
2022/05/22 00:02:27;;;;;;;3.38;3.10;;;18.70;67.00;;;;;;5061762;28;20218;-81
2022/05/22 00:04:53;;;;;;;4.57;3.25;;;18.70;66.90;;;;;;5049948;28;20213;-81
2022/05/22 00:07:18;;;;;;;4.95;4.00;;;18.70;66.70;;;;;;5058895;28;20188;-80
2022/05/22 00:09:44;;;;;;;3.72;3.17;;;18.80;66.30;;;;;;5058708;28;20203;-80
2022/05/22 00:12:11;;;;;;;4.95;3.75;;;18.90;66.40;;;;;;5059769;28;20223;-80
2022/05/22 00:14:38;;;;;;;4.82;3.90;;;18.90;66.20;;;;;;5027091;28;20242;-80
2022/05/22 00:17:06;;;;;;;3.90;3.50;;;18.90;66.10;;;;;;5044471;28;20193;-81
2022/05/22 00:19:32;;;;;;;3.90;3.50;;;18.90;66.70;;;;;;5040210;28;20284;-80
2022/05/22 00:21:59;;;;;;;5.28;3.25;;;18.80;66.10;;;;;;5057587;28;20222;-80
2022/05/22 00:24:29;;;;;;;3.72;3.42;;;18.70;66.30;;;;;;5057294;28;20256;-80
2022/05/22 00:26:56;;;;;;;3.00;2.80;;;18.60;66.90;;;;;;5056125;28;20189;-79
2022/05/22 00:29:22;;;;;;;3.58;3.28;;;18.70;66.80;;;;;;5059958;28;20194;-81
2022/05/22 00:31:48;;;;;;;4.25;3.85;;;18.70;66.10;;;;;;5056474;28;20247;-80
2022/05/22 00:34:15;;;;;;;3.25;3.05;;;18.50;66.10;;;;;;5044141;28;20288;-80
2022/05/22 00:36:41;;;;;;;4.15;3.42;;;18.00;68.00;;;;;;5057157;28;20216;-80
2022/05/22 00:39:07;;;;;;;4.05;3.75;;;17.80;69.70;;;;;;5058726;28;20186;-82
2022/05/22 00:41:34;;;;;;;4.50;3.80;;;17.70;70.50;;;;;;5061287;28;20188;-80
2022/05/22 00:44:01;;;;;;;3.50;3.20;;;17.70;69.80;;;;;;5052795;28;20582;-80
2022/05/22 00:46:29;;;;;;;3.97;3.30;;;17.60;69.50;;;;;;5058995;28;20273;-80
2022/05/22 00:49:06;;;;;;;4.00;3.40;;;17.50;70.50;;;;;;5059551;28;20187;-80
2022/05/22 00:51:44;;;;;;;3.65;3.20;;;17.40;71.40;;;;;;5057066;28;20206;-79
2022/05/22 00:54:38;;;;;;;3.33;3.03;;;17.40;70.90;;;;;;5061173;28;20199;-80
2022/05/22 00:57:24;;;;;;;3.15;2.85;;;17.70;69.90;;;;;;5045776;28;20203;-80
2022/05/22 00:59:54;;;;;;;3.50;2.83;;;17.80;68.20;;;;;;5061061;28;20391;-82
2022/05/22 01:02:20;;;;;;;3.50;3.20;;;17.90;68.20;;;;;;5060197;28;20210;-79
2022/05/22 01:04:49;;;;;;;3.72;2.95;;;17.90;67.60;;;;;;5064100;28;20200;-79
2022/05/22 01:07:18;;;;;;;3.38;3.08;;;18.00;67.10;;;;;;5060580;28;20192;-80
2022/05/22 01:09:46;;;;;;;3.42;3.13;;;18.00;67.40;;;;;;5057164;28;20350;-80
2022/05/22 01:12:18;;;;;;;4.38;3.47;;;18.00;66.10;;;;;;5047548;28;20301;-80
2022/05/22 01:14:47;;;;;;;4.20;3.20;;;17.70;68.10;;;;;;5063608;28;20188;-81
2022/05/22 01:17:14;;;;;;;4.13;3.00;;;17.60;68.40;;;;;;5049303;28;20185;-80
2022/05/22 01:19:40;;;;;;;3.30;3.08;;;17.70;68.50;;;;;;5058943;28;20254;-78
2022/05/22 01:22:09;;;;;;;3.80;3.10;;;17.70;68.00;;;;;;5064786;28;20206;-80
2022/05/22 01:24:36;;;;;;;3.97;3.10;;;17.70;67.70;;;;;;5058275;28;20191;-80
2022/05/22 01:27:09;;;;;;;3.80;2.95;;;17.60;68.40;;;;;;5058384;28;20219;-80
2022/05/22 01:29:35;;;;;;;4.07;3.00;;;17.60;69.00;;;;;;5047827;28;20189;-80
2022/05/22 01:32:00;;;;;;;3.10;2.90;;;17.60;68.90;;;;;;5034717;28;20246;-80
2022/05/22 01:34:26;;;;;;;3.30;3.00;;;17.50;68.50;;;;;;5065920;28;20214;-80
2022/05/22 01:36:52;;;;;;;3.37;2.60;;;17.50;68.60;;;;;;5047121;28;20198;-80
2022/05/22 01:39:18;;;;;;;3.05;2.80;;;17.50;68.80;;;;;;5061953;28;20187;-81
2022/05/22 01:41:43;;;;;;;3.45;3.17;;;17.40;68.50;;;;;;5035458;28;20195;-80
2022/05/22 01:44:09;;;;;;;2.92;2.63;;;17.50;68.60;;;;;;5048715;28;20239;-79
2022/05/22 01:46:34;;;;;;;3.47;3.17;;;17.40;68.60;;;;;;5026036;28;20202;-80
2022/05/22 01:49:01;;;;;;;3.50;3.20;;;17.30;69.50;;;;;;5058806;28;20209;-80
2022/05/22 01:51:32;;;;;;;3.15;2.85;;;17.30;68.30;;;;;;5042498;28;20672;-80
2022/05/22 01:54:01;;;;;;;3.27;2.93;;;17.30;68.80;;;;;;5065977;28;20201;-79
2022/05/22 01:56:31;;;;;;;3.10;2.80;;;17.30;68.60;;;;;;5059387;28;20184;-79
2022/05/22 01:58:57;;;;;;;3.80;3.00;;;17.30;68.60;;;;;;5058978;28;20197;-79
2022/05/22 02:01:22;;;;;;;3.08;2.88;;;17.30;68.00;;;;;;5037662;28;20187;-79
2022/05/22 02:03:48;;;;;;;3.10;2.83;;;17.20;69.20;;;;;;5060320;28;20225;-79
2022/05/22 02:06:14;;;;;;;3.30;2.90;;;17.20;68.90;;;;;;5047158;28;20222;-80
2022/05/22 02:08:40;;;;;;;3.60;2.80;;;17.10;69.50;;;;;;5060433;28;20188;-80
2022/05/22 02:11:06;;;;;;;3.00;2.80;;;17.20;68.90;;;;;;5031229;28;20760;-79
2022/05/22 02:13:35;;;;;;;3.50;3.20;;;17.30;69.10;;;;;;5060831;28;20202;-79
2022/05/22 02:16:01;;;;;;;3.53;2.97;;;17.30;68.60;;;;;;5064156;28;20242;-80
2022/05/22 02:18:30;;;;;;;3.10;2.80;;;17.30;67.80;;;;;;5060854;28;20189;-80
2022/05/22 02:20:56;;;;;;;2.93;2.73;;;17.30;68.20;;;;;;5064412;28;20206;-80
2022/05/22 02:23:22;;;;;;;2.67;2.47;;;17.00;70.10;;;;;;5060339;28;20212;-80
2022/05/22 02:25:50;;;;;;;3.47;3.17;;;17.10;69.50;;;;;;5060686;28;20203;-79
2022/05/22 02:28:17;;;;;;;4.00;2.90;;;16.90;70.40;;;;;;5070338;28;20670;-80
2022/05/22 02:30:48;;;;;;;3.20;2.90;;;16.60;72.20;;;;;;5041916;28;20214;-79
2022/05/22 02:33:14;;;;;;;3.50;2.83;;;16.50;72.30;;;;;;5065435;28;20211;-81
2022/05/22 02:35:40;;;;;;;3.80;3.00;;;16.40;72.40;;;;;;5058007;28;20194;-80
2022/05/22 02:38:06;;;;;;;3.33;2.90;;;16.30;73.60;;;;;;5061063;28;20598;-79
2022/05/22 02:40:34;;;;;;;3.10;2.73;;;16.40;73.20;;;;;;5062961;28;20191;-79
2022/05/22 02:43:00;;;;;;;2.63;2.43;;;16.40;73.20;;;;;;5041423;28;20307;-79
2022/05/22 02:45:28;;;;;;;3.07;2.87;;;16.50;72.50;;;;;;5062785;28;20180;-79
2022/05/22 02:47:54;;;;;;;3.17;2.87;;;16.30;72.60;;;;;;5064074;28;20214;-80
2022/05/22 02:50:23;;;;;;;3.10;2.80;;;16.00;74.50;;;;;;5063058;28;20187;-80
2022/05/22 02:52:50;;;;;;;4.47;2.70;;;16.00;75.30;;;;;;5060952;28;20232;-80
2022/05/22 02:55:17;;;;;;;3.53;2.70;;;16.10;73.80;;;;;;5042435;28;20181;-80
2022/05/22 02:57:44;;;;;;;2.90;2.70;;;16.20;73.40;;;;;;5072047;28;20180;-80
2022/05/22 03:00:30;;;;;;;3.63;2.50;;;16.10;74.00;;;;;;5074715;28;20565;-79
2022/05/22 03:02:56;;;;;;;5.47;2.90;;;16.10;74.10;;;;;;5074086;28;20215;-80
2022/05/22 03:05:24;;;;;;;3.07;2.57;;;16.30;72.70;;;;;;5060636;28;20191;-80
2022/05/22 03:07:49;;;;;;;3.03;2.60;;;16.40;72.40;;;;;;5073887;28;20252;-80
2022/05/22 03:10:17;;;;;;;2.67;2.47;;;16.40;72.60;;;;;;5069754;28;20200;-80
2022/05/22 03:12:44;;;;;;;2.47;2.27;;;16.40;72.30;;;;;;5069947;28;20273;-80
2022/05/22 03:15:12;;;;;;;2.60;2.40;;;16.40;71.40;;;;;;5066744;28;20215;-80
2022/05/22 03:17:38;;;;;;;2.60;2.40;;;16.20;71.80;;;;;;5066240;28;20180;-79
2022/05/22 03:20:05;;;;;;;3.27;2.97;;;16.20;72.20;;;;;;5071230;28;20214;-79
2022/05/22 03:22:31;;;;;;;2.93;2.63;;;16.30;71.40;;;;;;5072421;28;20221;-79
2022/05/22 03:24:57;;;;;;;3.00;2.70;;;16.30;71.30;;;;;;5067722;28;20195;-79
2022/05/22 03:27:26;;;;;;;3.20;2.90;;;16.10;71.70;;;;;;5072772;28;20192;-80
2022/05/22 03:29:51;;;;;;;2.60;2.40;;;16.00;72.20;;;;;;5072968;28;20200;-79
2022/05/22 03:32:17;;;;;;;3.03;2.63;;;16.00;71.70;;;;;;5071662;28;20219;-80
2022/05/22 03:34:43;;;;;;;2.73;2.30;;;15.90;72.20;;;;;;5072083;28;20180;-79
2022/05/22 03:37:10;;;;;;;4.80;2.90;;;15.90;72.60;;;;;;5061174;28;20203;-79
2022/05/22 03:39:36;;;;;;;3.10;2.57;;;15.90;71.10;;;;;;5047112;28;20559;-81
2022/05/22 03:42:02;;;;;;;4.87;3.10;;;16.00;70.90;;;;;;5073374;28;20264;-80
2022/05/22 03:44:28;;;;;;;4.00;3.70;;;16.00;70.30;;;;;;5066494;28;20204;-80
2022/05/22 03:46:54;;;;;;;2.87;2.67;;;16.10;70.30;;;;;;5070627;28;20758;-81
2022/05/22 03:49:20;;;;;;;4.17;2.83;;;16.10;70.30;;;;;;5071237;28;20192;-80
2022/05/22 03:51:45;;;;;;;3.03;2.40;;;16.10;70.30;;;;;;5048065;28;20299;-80
2022/05/22 03:54:11;;;;;;;3.10;2.80;;;16.20;70.40;;;;;;5047695;28;20451;-80
2022/05/22 03:56:39;;;;;;;2.73;2.30;;;16.10;69.80;;;;;;5061630;28;20199;-80
2022/05/22 03:59:05;;;;;;;3.00;2.70;;;16.10;70.70;;;;;;5051396;28;20204;-80
2022/05/22 04:01:31;;;;;;;2.83;2.63;;;16.00;70.40;;;;;;5067310;28;20184;-79
2022/05/22 04:03:57;;;;;;;2.43;2.23;;;15.80;71.50;;;;;;5063976;28;20227;-79
2022/05/22 04:06:23;;;;;;;3.83;3.00;;;15.80;72.30;;;;;;5064878;28;20185;-81
2022/05/22 04:08:49;;;;;;;2.73;2.53;;;15.80;71.70;;;;;;5048101;28;20197;-80
2022/05/22 04:11:18;;;;;;;2.83;2.63;;;15.90;71.50;;;;;;5057419;28;20216;-80
2022/05/22 04:13:45;;;;;;;2.50;2.30;;;16.00;71.60;;;;;;5028421;28;20212;-80
2022/05/22 04:16:10;;;;;;;3.20;2.90;;;16.00;71.20;;;;;;5061065;28;20210;-80
2022/05/22 04:18:36;;;;;;;3.63;2.70;;;16.00;71.20;;;;;;5058025;28;20192;-81
2022/05/22 04:21:03;;;;;;;2.90;2.30;;;15.80;71.60;;;;;;5064176;28;20184;-81
2022/05/22 04:26:13;;;;;;;2.93;2.50;;;16.00;71.70;;;;;;5061873;28;20260;-80
2022/05/22 04:28:40;;;;;;;3.00;2.67;;;16.00;71.90;;;;;;5069967;28;20279;-80
2022/05/22 04:31:05;;;;;;;2.67;2.40;;;16.00;71.80;;;;;;5063933;28;20192;-80
2022/05/22 04:33:32;;;;;;;2.90;2.40;;;16.10;71.30;;;;;;5059993;28;20243;-80
2022/05/22 04:35:59;;;;;;;2.77;2.57;;;16.10;71.30;;;;;;5065497;28;20186;-80
2022/05/22 04:38:25;;;;;;;3.80;2.57;;;16.20;71.40;;;;;;5064789;28;20181;-80
2022/05/22 04:40:59;;;;;;;2.47;2.30;;;16.20;71.10;;;;;;5068826;28;20210;-81
2022/05/22 04:43:26;;;;;;;3.53;2.57;;;16.30;70.60;;;;;;5070882;28;20379;-80
2022/05/22 04:45:53;;;;;;;3.07;2.77;;;16.20;71.10;;;;;;5041768;28;20193;-81
2022/05/22 04:48:20;;;;;;;2.53;2.33;;;16.10;71.80;;;;;;5062374;28;20287;-80
2022/05/22 04:50:47;;;;;;;3.77;2.90;;;16.00;72.90;;;;;;5033242;28;20186;-79
2022/05/22 04:53:15;;;;;;;3.20;2.90;;;16.00;72.60;;;;;;5064827;28;20220;-79
2022/05/22 04:55:41;;;;;;;2.93;2.60;;;16.00;73.10;;;;;;5046881;28;20275;-79
2022/05/22 04:58:07;;;;;;;2.80;2.47;;;16.10;73.20;;;;;;5066117;28;20196;-80
2022/05/22 05:00:33;;;;;;;3.60;2.70;;;16.20;72.60;;;;;;5066955;28;20182;-80
2022/05/22 05:02:58;;;;;;;5.60;2.73;;;16.30;72.20;;;;;;5065109;28;20253;-81
2022/05/22 05:05:24;;;;;;;3.10;2.90;;;16.40;71.90;;;;;;5041727;28;20197;-80
2022/05/22 05:07:50;;;;;;;3.37;3.13;;;16.50;71.80;;;;;;5063162;28;20204;-80
2022/05/22 05:10:15;;;;;;;4.60;2.97;;;16.50;72.00;;;;;;5063293;28;20201;-80
2022/05/22 05:12:42;;;;;;;4.23;3.13;;;16.60;71.80;;;;;;5078852;28;20227;-80
2022/05/22 05:15:11;;;;;;;2.80;2.60;;;16.70;71.50;;;;;;5061229;28;20189;-80
2022/05/22 05:17:40;;;;;;;4.10;3.10;;;16.90;71.80;;;;;;5051611;28;20198;-80
2022/05/22 05:20:06;;;;;;;4.47;2.93;;;16.80;72.30;;;;;;5056644;28;20183;-80
2022/05/22 05:22:32;;;;;;;4.17;2.90;;;16.80;72.90;;;;;;5061246;28;20217;-80
2022/05/22 05:24:58;;;;;;;8.63;3.10;;;16.60;74.80;;;;;;5051276;28;20209;-80
2022/05/22 05:27:24;;;;;;;3.00;2.80;;;16.80;75.40;;;;;;5066594;28;20194;-80
2022/05/22 05:29:50;;;;;;;3.63;2.70;;;16.80;75.40;;;;;;5065296;28;20191;-79
2022/05/22 05:32:22;;;;;;;4.07;2.93;;;16.90;75.30;;;;;;5062139;28;20252;-80
2022/05/22 05:34:54;;;;;;;4.67;3.10;;;17.00;75.00;;;;;;5045129;28;20234;-81
2022/05/22 05:37:20;;;;;;;3.03;2.83;;;17.00;75.30;;;;;;5060965;28;20193;-80
2022/05/22 05:39:46;;;;;;;4.20;3.00;;;17.10;75.00;;;;;;5059647;28;20188;-80
2022/05/22 05:42:13;;;;;;;3.90;3.53;;;16.90;76.80;;;;;;5048152;28;20706;-80
2022/05/22 05:44:39;;;;;;;7.03;4.10;;;16.90;77.10;;;;;;5064043;28;20213;-80
2022/05/22 05:47:05;;;;;;;3.87;3.57;;;16.90;77.60;;;;;;5065747;28;20253;-80
2022/05/22 05:49:30;;;;;;;3.83;3.53;;;16.80;77.80;;;;;;5070248;28;20200;-81
2022/05/22 05:51:56;;;;;;;4.40;3.87;;;16.90;78.00;;;;;;5049929;28;20232;-81
2022/05/22 05:54:22;;;;;;;3.80;3.50;;;17.00;77.90;;;;;;5065386;28;20258;-80
2022/05/22 05:56:49;;;;;;;3.97;3.67;;;17.10;78.10;;;;;;5068498;28;20192;-81
2022/05/22 05:59:14;;;;;;;4.13;3.83;;;17.10;78.00;;;;;;5067309;28;20189;-80
2022/05/22 06:01:40;;;;;;;3.90;3.50;;;17.20;77.60;;;;;;5068183;28;20192;-80
2022/05/22 06:04:06;;;;;;;4.18;3.85;;;17.30;75.90;;;;;;5061224;28;20217;-80
2022/05/22 06:06:31;;;;;;;4.07;3.77;;;17.40;76.70;;;;;;5068134;28;20614;-80
2022/05/22 06:08:57;;;;;;;4.67;3.60;;;17.40;76.20;;;;;;5066676;28;20223;-79
2022/05/22 06:11:23;;;;;;;4.83;3.83;;;17.30;77.20;;;;;;5065938;28;20190;-79
2022/05/22 06:13:48;;;;;;;4.75;4.13;;;17.40;76.40;;;;;;5058365;28;20208;-80
2022/05/22 06:16:14;;;;;;;4.07;3.67;;;17.40;76.60;;;;;;5065646;28;20185;-79
2022/05/22 06:18:40;;;;;;;5.20;4.53;;;17.60;76.10;;;;;;5042014;28;20205;-79
2022/05/22 06:21:17;;;;;;;5.22;3.92;;;17.70;74.70;;;;;;5058847;28;20248;-80
2022/05/22 06:23:43;;;;;;;4.20;3.80;;;17.80;74.20;;;;;;5060025;28;20210;-80
2022/05/22 06:26:17;;;;;;;5.88;4.20;;;17.80;74.90;;;;;;5062588;28;20173;-82
2022/05/22 06:28:43;;;;;;;4.38;3.83;;;17.90;73.70;;;;;;5064999;28;20194;-81
2022/05/22 06:31:13;;;;;;;4.38;3.97;;;18.00;74.30;;;;;;5054259;28;20179;-81
2022/05/22 06:33:39;;;;;;;3.72;3.42;;;18.10;74.20;;;;;;5056908;28;20220;-82
2022/05/22 06:36:11;;;;;;;4.45;3.80;;;18.20;74.30;;;;;;5060937;28;20191;-82
2022/05/22 06:41:22;;;;;;;3.67;3.38;;;18.10;74.70;;;;;;5067896;28;20187;-80
2022/05/22 06:43:51;;;;;;;13.75;4.50;;;18.20;73.50;;;;;;5048776;28;20234;-80
2022/05/22 06:46:19;;;;;;;4.63;4.10;;;18.30;75.10;;;;;;5066659;28;20209;-79
2022/05/22 06:48:45;;;;;;;4.20;3.80;;;18.40;74.10;;;;;;5067722;28;20211;-82
2022/05/22 06:51:11;;;;;;;3.78;3.47;;;18.30;75.30;;;;;;5064455;28;20223;-81
2022/05/22 06:53:37;;;;;;;5.10;3.65;;;18.40;73.70;;;;;;5068165;28;20216;-81
2022/05/22 06:56:03;;;;;;;4.20;3.67;;;18.60;71.90;;;;;;5067605;28;20214;-80
2022/05/22 06:58:29;;;;;;;4.20;3.53;;;18.70;72.10;;;;;;5066103;28;20172;-81
2022/05/22 07:00:55;;;;;;;4.95;3.95;;;18.60;72.50;;;;;;5066801;28;20235;-81
2022/05/22 07:03:21;;;;;;;4.43;3.58;;;18.70;71.60;;;;;;5049150;28;20227;-80
2022/05/22 07:05:47;;;;;;;4.18;3.80;;;18.40;74.00;;;;;;5066746;28;20663;-80
2022/05/22 07:08:13;;;;;;;4.55;3.35;;;18.40;73.70;;;;;;5064065;28;20180;-80
2022/05/22 07:13:26;;;;;;;4.07;3.75;;;18.70;73.10;;;;;;5066503;28;20744;-81
2022/05/22 07:16:03;;;;;;;5.60;4.05;;;18.70;72.80;;;;;;5048133;28;20233;-80
2022/05/22 07:18:29;;;;;;;4.03;3.63;;;18.60;72.70;;;;;;5067662;28;20274;-81
2022/05/22 07:20:55;;;;;;;4.95;3.60;;;18.70;73.10;;;;;;5065936;28;20179;-80
2022/05/22 07:23:20;;;;;;;8.23;4.25;;;18.70;72.90;;;;;;5064264;28;20230;-79
2022/05/22 07:25:46;;;;;;;4.90;4.03;;;18.70;73.40;;;;;;5049659;28;20219;-80
2022/05/22 07:28:13;;;;;;;4.00;3.70;;;18.80;73.20;;;;;;5049331;28;20662;-80
2022/05/22 07:30:38;;;;;;;4.40;3.92;;;18.80;72.10;;;;;;5066701;28;20180;-80
2022/05/22 07:33:04;;;;;;;5.80;3.47;;;19.00;70.90;;;;;;5065515;28;20260;-80
2022/05/22 07:35:30;;;;;;;3.80;3.50;;;19.10;69.00;;;;;;5066610;28;20275;-81
2022/05/22 07:37:56;;;;;;;3.63;3.20;;;19.20;69.00;;;;;;5045509;28;20200;-81
2022/05/22 07:40:22;;;;;;;4.57;3.33;;;19.40;68.30;;;;;;5065116;28;20184;-80
2022/05/22 07:42:48;;;;;;;4.57;4.10;;;19.60;67.20;;;;;;5066755;28;20219;-81
2022/05/22 07:45:15;;;;;;;4.38;3.63;;;19.80;66.70;;;;;;5033819;28;20196;-80
2022/05/22 07:47:41;;;;;;;5.07;3.78;;;19.80;66.80;;;;;;5071369;28;20208;-81
2022/05/22 07:50:16;;;;;;;5.50;3.88;;;19.90;67.80;;;;;;5073201;28;20250;-80
2022/05/22 07:52:43;;;;;;;4.07;3.70;;;20.00;66.40;;;;;;5066864;28;20224;-80
2022/05/22 07:55:14;;;;;;;3.80;3.50;;;20.10;65.10;;;;;;5069802;28;20194;-81
2022/05/22 07:57:43;;;;;;;4.35;3.50;;;20.30;64.80;;;;;;5069423;28;20192;-81
2022/05/22 08:00:15;;;;;;;4.88;3.92;;;20.20;64.90;;;;;;5050662;28;20190;-82
2022/05/22 08:02:41;;;;;;;4.03;3.60;;;20.20;65.60;;;;;;5053110;28;20204;-80
2022/05/22 08:05:08;;;;;;;3.80;3.50;;;20.20;63.90;;;;;;5075300;28;20817;-82
2022/05/22 08:07:35;;;;;;;4.70;3.65;;;20.30;64.20;;;;;;5050800;28;20201;-81
2022/05/22 08:10:01;;;;;;;5.60;4.22;;;20.30;63.80;;;;;;5070008;28;20199;-82
2022/05/22 08:12:27;;;;;;;4.82;4.05;;;20.40;64.60;;;;;;5070425;28;20220;-81
2022/05/22 08:14:53;;;;;;;5.82;4.60;;;20.60;63.90;;;;;;5069127;28;20205;-80
2022/05/22 08:17:21;;;;;;;4.50;4.10;;;20.50;65.00;;;;;;5068757;28;20205;-81
2022/05/22 08:19:48;;;;;;;4.72;4.30;;;20.60;64.10;;;;;;5062468;28;20189;-81
2022/05/22 08:22:16;;;;;;;5.10;4.40;;;20.80;63.80;;;;;;5052056;28;20295;-80
2022/05/22 08:24:42;;;;;;;4.68;4.05;;;21.00;63.10;;;;;;5049289;28;20268;-81
2022/05/22 08:27:08;;;;;;;4.63;4.22;;;20.80;62.20;;;;;;5070450;28;20187;-82
2022/05/22 08:29:34;;;;;;;7.88;4.63;;;20.70;63.60;;;;;;5065200;28;20192;-81
2022/05/22 08:31:59;;;;;;;4.28;3.80;;;20.70;62.40;;;;;;5079105;28;20267;-82
2022/05/22 08:34:25;;;;;;;5.03;4.00;;;21.00;59.30;;;;;;5048790;28;20215;-81
2022/05/22 08:36:53;;;;;;;4.10;3.70;;;21.30;60.20;;;;;;5067885;28;20238;-81
2022/05/22 08:39:19;;;;;;;4.07;3.75;;;21.40;60.30;;;;;;5068610;28;20206;-81
2022/05/22 08:41:50;;;;;;;6.03;3.80;;;21.60;57.70;;;;;;5068364;28;20198;-81
2022/05/22 08:44:22;;;;;;;4.65;3.88;;;21.80;58.20;;;;;;5069154;28;20204;-81
2022/05/22 08:47:03;;;;;;;4.97;3.70;;;22.10;58.00;;;;;;5069649;28;20195;-81
2022/05/22 08:49:35;;;;;;;4.47;4.07;;;22.10;57.70;;;;;;5066029;28;20192;-81
2022/05/22 08:52:08;;;;;;;4.63;4.13;;;22.10;57.20;;;;;;5068390;28;20212;-81
2022/05/22 08:54:42;;;;;;;3.50;3.08;;;22.20;56.70;;;;;;5070021;28;20243;-82
2022/05/22 09:00:10;;;;;;;3.88;3.30;;;22.60;54.40;;;;;;5064968;28;20194;-82
2022/05/22 09:02:52;;;;;;;4.60;3.50;;;22.80;53.90;;;;;;5069145;28;20223;-81
2022/05/22 09:05:24;;;;;;;4.45;3.85;;;22.80;53.50;;;;;;5068043;28;20204;-82
2022/05/22 09:08:02;;;;;;;3.80;3.47;;;22.60;53.40;;;;;;5069475;28;20215;-82
2022/05/22 09:10:44;;;;;;;4.03;3.33;;;22.80;52.80;;;;;;5069576;28;20197;-82
2022/05/22 09:13:17;;;;;;;4.32;3.13;;;22.80;51.70;;;;;;5071196;28;20219;-81
2022/05/22 09:15:57;;;;;;;3.70;3.40;;;22.70;51.00;;;;;;5070138;28;20172;-82
2022/05/22 09:18:29;;;;;;;3.55;3.25;;;22.70;50.40;;;;;;5069889;28;20188;-82
2022/05/22 09:21:03;;;;;;;3.53;3.22;;;22.60;51.40;;;;;;5064333;28;20639;-81
2022/05/22 09:23:31;;;;;;;5.60;3.33;;;22.90;49.70;;;;;;5065541;28;20278;-81
2022/05/22 09:26:16;;;;;;;3.10;2.90;;;23.00;48.60;;;;;;5062204;28;20196;-82
2022/05/22 09:28:47;;;;;;;3.38;3.08;;;23.30;47.30;;;;;;5068336;28;20195;-81
2022/05/22 09:31:26;;;;;;;5.65;3.30;;;23.50;47.70;;;;;;5045741;28;20180;-81
2022/05/22 09:34:37;;;;;;;2.78;2.58;;;23.50;47.20;;;;;;5065121;28;20226;-83
2022/05/22 09:37:02;;;;;;;3.58;2.92;;;23.30;46.00;;;;;;5036654;28;20200;-81
2022/05/22 09:39:37;;;;;;;2.53;2.40;;;23.60;45.20;;;;;;5064078;28;20200;-81
2022/05/22 09:42:21;;;;;;;3.10;2.80;;;23.60;44.60;;;;;;5064745;28;20204;-82
2022/05/22 09:44:59;;;;;;;4.72;2.70;;;23.80;42.50;;;;;;5043689;28;20207;-81
2022/05/22 09:47:34;;;;;;;3.38;2.63;;;24.00;43.20;;;;;;5064288;28;20192;-82
2022/05/22 09:50:32;;;;;;;2.92;2.13;;;24.10;39.30;;;;;;5045317;28;20192;-81
2022/05/22 09:53:23;;;;;;;2.40;2.20;;;24.20;37.60;;;;;;5063850;28;20239;-82
2022/05/22 09:55:52;;;;;;;3.35;2.60;;;24.50;37.80;;;;;;5059599;28;20188;-82
2022/05/22 09:59:01;;;;;;;2.83;2.60;;;24.70;37.60;;;;;;5063904;28;20192;-82
2022/05/22 10:01:38;;;;;;;2.40;2.20;;;24.90;37.40;;;;;;5045712;28;20196;-81
2022/05/22 10:04:23;;;;;;;3.00;2.22;;;24.80;38.00;;;;;;5063855;28;20247;-82
2022/05/22 10:07:26;;;;;;;3.28;2.50;;;24.70;36.00;;;;;;5062453;28;20187;-80
2022/05/22 10:10:07;;;;;;;2.78;2.50;;;25.00;36.60;;;;;;5062395;28;20188;-81
2022/05/22 10:12:51;;;;;;;3.95;2.58;;;25.20;37.00;;;;;;5064994;28;20226;-83
2022/05/22 10:15:40;;;;;;;3.70;2.63;;;25.30;37.80;;;;;;5064264;28;20186;-82
2022/05/22 10:18:44;;;;;;;4.28;2.85;;;25.20;38.40;;;;;;5064187;28;20195;-81
2022/05/22 10:21:13;;;;;;;6.03;2.88;;;25.20;38.80;;;;;;5063813;28;20244;-82
2022/05/22 10:23:57;;;;;;;4.15;2.95;;;25.40;38.30;;;;;;5061581;28;20214;-82
2022/05/22 10:26:36;;;;;;;3.17;2.85;;;25.70;38.70;;;;;;5064684;28;20461;-83
2022/05/22 10:29:25;;;;;;;4.40;2.70;;;26.00;37.50;;;;;;5064815;28;20183;-82
2022/05/22 10:32:04;;;;;;;4.85;3.15;;;26.30;36.00;;;;;;5065544;28;20211;-82
2022/05/22 10:34:40;;;;;;;3.65;2.92;;;26.10;39.50;;;;;;5067205;28;20226;-82
2022/05/22 10:37:18;;;;;;;3.50;3.20;;;26.00;38.60;;;;;;5066493;28;20202;-81
2022/05/22 10:39:43;;;;;;;3.45;2.90;;;25.80;38.50;;;;;;5063528;28;20168;-81
2022/05/22 10:45:22;;;;;;;3.20;2.90;;;26.60;37.40;;;;;;5056601;28;20194;-83
2022/05/22 10:47:50;;;;;;;3.08;2.70;;;26.80;36.70;;;;;;5044697;28;20196;-83
2022/05/22 10:50:26;;;;;;;7.82;2.80;;;27.00;35.70;;;;;;5042952;28;20576;-83
2022/05/22 10:52:53;;;;;;;2.72;2.53;;;27.30;36.00;;;;;;5056064;28;20896;-83
2022/05/22 10:55:28;;;;;;;3.55;2.90;;;26.70;35.90;;;;;;5058676;28;20180;-83
2022/05/22 10:58:01;;;;;;;3.30;2.75;;;26.60;36.20;;;;;;5053615;28;20684;-84
2022/05/22 11:00:27;;;;;;;3.03;2.72;;;26.60;35.90;;;;;;5037140;28;20227;-84
2022/05/22 11:02:53;;;;;;;3.08;2.78;;;26.40;36.00;;;;;;5053441;28;20205;-84
2022/05/22 11:05:28;;;;;;;3.05;2.70;;;26.20;37.00;;;;;;5056705;28;20194;-84
2022/05/22 11:07:57;;;;;;;4.15;2.97;;;26.70;36.70;;;;;;5060308;28;20187;-83
2022/05/22 11:10:27;;;;;;;3.53;2.75;;;27.20;35.10;;;;;;5055101;28;20240;-83
2022/05/22 11:13:11;;;;;;;2.80;2.53;;;27.30;34.40;;;;;;5048742;28;20756;-83
2022/05/22 11:15:42;;;;;;;3.00;2.53;;;27.00;34.30;;;;;;5062157;28;20192;-84
2022/05/22 11:18:09;;;;;;;4.38;2.50;;;27.20;33.70;;;;;;5055608;28;20176;-83
2022/05/22 11:20:49;;;;;;;3.83;2.72;;;27.50;33.50;;;;;;5052268;28;20188;-83
2022/05/22 11:23:45;;;;;;;5.97;2.70;;;27.60;34.50;;;;;;5062572;28;20215;-84
2022/05/22 11:26:40;;;;;;;3.53;2.97;;;28.10;32.60;;;;;;5061286;28;20654;-83
2022/05/22 11:29:32;;;;;;;2.55;2.35;;;28.10;32.60;;;;;;5059848;28;20184;-84
2022/05/22 11:32:28;;;;;;;2.83;2.60;;;28.50;31.50;;;;;;5064556;28;20242;-83
2022/05/22 11:35:10;;;;;;;2.95;2.58;;;28.60;30.80;;;;;;5057293;28;20222;-84
2022/05/22 11:37:50;;;;;;;2.92;2.67;;;28.60;31.00;;;;;;5040436;28;20183;-83
2022/05/22 11:40:32;;;;;;;2.75;2.55;;;29.10;31.00;;;;;;5063634;28;20604;-84
2022/05/22 11:43:27;;;;;;;4.07;3.00;;;29.70;29.40;;;;;;5067523;28;20286;-83
2022/05/22 11:46:09;;;;;;;2.90;2.60;;;29.70;29.60;;;;;;5051273;28;20212;-83
2022/05/22 11:48:51;;;;;;;2.92;2.72;;;29.80;29.40;;;;;;5065250;28;20181;-84
2022/05/22 11:51:35;;;;;;;2.80;2.50;;;29.80;29.00;;;;;;5038172;28;20249;-84
2022/05/22 11:54:10;;;;;;;4.03;3.72;;;29.90;28.30;;;;;;5051856;28;20219;-83
2022/05/22 11:57:00;;;;;;;3.38;3.08;;;29.60;28.50;;;;;;5058553;28;20183;-83
2022/05/22 11:59:46;;;;;;;4.15;2.88;;;29.80;27.90;;;;;;5055204;28;20651;-83
2022/05/22 12:02:36;;;;;;;3.20;3.00;;;29.80;27.50;;;;;;5066174;28;20239;-83
2022/05/22 12:05:29;;;;;;;3.80;2.70;;;29.90;27.30;;;;;;5047998;28;20406;-83
2022/05/22 12:08:13;;;;;;;3.00;2.70;;;30.10;28.20;;;;;;5065021;28;20654;-83
2022/05/22 12:11:17;;;;;;;3.50;2.88;;;30.10;29.10;;;;;;5047327;28;20169;-83
2022/05/22 12:14:08;;;;;;;4.20;2.97;;;30.00;28.50;;;;;;5060859;28;20236;-85
2022/05/22 12:16:43;;;;;;;3.20;2.63;;;29.80;28.60;;;;;;5061055;28;20195;-83
2022/05/22 12:19:31;;;;;;;2.90;2.70;;;29.90;29.20;;;;;;5062108;28;20270;-83
2022/05/22 12:22:15;;;;;;;4.13;3.10;;;30.30;29.40;;;;;;5071886;28;20192;-83
2022/05/22 12:24:51;;;;;;;4.57;3.15;;;30.60;28.20;;;;;;5064240;28;20184;-83
2022/05/22 12:27:28;;;;;;;3.30;3.00;;;30.60;28.20;;;;;;5066158;28;20190;-84
2022/05/22 12:30:11;;;;;;;4.15;3.50;;;30.70;28.70;;;;;;5063062;28;20176;-82
2022/05/22 12:32:58;;;;;;;3.88;3.58;;;30.20;29.10;;;;;;5067152;28;20223;-83
2022/05/22 12:35:25;;;;;;;3.58;3.28;;;30.70;29.00;;;;;;5061568;28;20184;-81
2022/05/22 12:38:14;;;;;;;6.32;2.95;;;30.50;29.20;;;;;;5047446;28;20200;-82
2022/05/22 12:40:59;;;;;;;3.42;2.90;;;30.40;28.70;;;;;;5056288;28;20185;-82
2022/05/22 12:43:25;;;;;;;3.20;2.90;;;30.30;28.70;;;;;;5065546;28;20231;-83
2022/05/22 12:46:00;;;;;;;3.17;2.97;;;30.60;28.40;;;;;;5053326;28;20204;-81
2022/05/22 12:48:32;;;;;;;3.42;3.13;;;30.90;27.40;;;;;;5042692;28;20280;-82
2022/05/22 12:51:08;;;;;;;3.55;3.10;;;31.00;27.70;;;;;;5063110;28;20184;-83
2022/05/22 12:53:35;;;;;;;3.67;3.38;;;31.00;28.40;;;;;;5060678;28;20234;-82
2022/05/22 12:56:21;;;;;;;4.35;3.08;;;31.20;27.70;;;;;;5048175;28;20266;-83
2022/05/22 12:59:15;;;;;;;3.33;3.05;;;30.80;27.90;;;;;;5067346;28;20216;-82
2022/05/22 13:01:45;;;;;;;4.85;3.33;;;30.50;28.10;;;;;;5059836;28;20189;-81
2022/05/22 13:04:19;;;;;;;3.40;3.00;;;30.80;27.70;;;;;;5066505;28;20191;-83
2022/05/22 13:07:18;;;;;;;3.13;2.90;;;31.00;28.50;;;;;;5059835;28;20172;-82
2022/05/22 13:09:51;;;;;;;4.93;3.58;;;31.10;28.50;;;;;;5057299;28;20180;-83
2022/05/22 13:12:21;;;;;;;5.25;3.20;;;30.40;28.40;;;;;;5059467;28;20216;-83
2022/05/22 13:14:58;;;;;;;3.92;2.80;;;30.40;28.90;;;;;;5061854;28;20172;-82
2022/05/22 13:18:11;;;;;;;3.30;2.92;;;30.70;27.70;;;;;;5064100;28;20252;-81
2022/05/22 13:20:37;;;;;;;3.15;2.85;;;30.90;28.40;;;;;;5000641;28;20276;-82
2022/05/22 13:23:23;;;;;;;4.13;2.90;;;30.50;29.00;;;;;;5059669;28;20227;-82